Time;durP1;ratioP1;P1;durP2;ratioP2;P2;SDS_P1;SDS_P2;PMS_P1;PMS_P2;Temp;Humidity;BMP_temperature;BMP_pressure;BME280_temperature;BME280_humidity;BME280_pressure;Samples;Min_cycle;Max_cycle;Signal;HPM_P1;HPM_P2
2024/02/15 00:00:49;;;;;;;2.08;1.88;;;;;;;;;;5093431;28;20240;-85
2024/02/15 00:03:16;;;;;;;2.00;1.90;;;;;;;;;;5097171;28;20296;-86
2024/02/15 00:05:45;;;;;;;1.95;1.85;;;;;;;;;;5090128;28;20659;-86
2024/02/15 00:08:15;;;;;;;1.92;1.80;;;;;;;;;;5089814;28;20580;-86
2024/02/15 00:10:42;;;;;;;1.77;1.67;;;;;;;;;;5097630;28;20224;-87
2024/02/15 00:13:10;;;;;;;2.45;2.25;;;;;;;;;;5101432;28;20200;-87
2024/02/15 00:15:37;;;;;;;3.25;3.00;;;;;;;;;;5101472;28;20205;-84
2024/02/15 00:18:07;;;;;;;2.15;2.03;;;;;;;;;;5101368;28;20647;-87
2024/02/15 00:20:34;;;;;;;2.40;2.20;;;;;;;;;;5101895;28;20223;-86
2024/02/15 00:23:02;;;;;;;1.67;1.58;;;;;;;;;;5101394;28;20200;-87
2024/02/15 00:25:31;;;;;;;2.58;2.33;;;;;;;;;;5101610;28;20280;-86
2024/02/15 00:28:00;;;;;;;2.67;2.47;;;;;;;;;;5100747;28;20235;-85
2024/02/15 00:30:28;;;;;;;1.95;1.85;;;;;;;;;;5100919;28;20220;-86
2024/02/15 00:32:55;;;;;;;2.50;2.08;;;;;;;;;;5100288;28;20650;-85
2024/02/15 00:35:23;;;;;;;1.30;1.23;;;;;;;;;;5100560;28;20200;-85
2024/02/15 00:37:50;;;;;;;1.40;1.30;;;;;;;;;;5100264;28;20851;-85
2024/02/15 00:40:18;;;;;;;1.00;1.00;;;;;;;;;;5099516;28;20235;-85
2024/02/15 00:42:47;;;;;;;0.77;0.77;;;;;;;;;;5099570;28;20211;-85
2024/02/15 00:45:14;;;;;;;1.15;1.10;;;;;;;;;;5099893;28;20200;-86
2024/02/15 00:47:42;;;;;;;1.20;1.10;;;;;;;;;;5099900;28;20594;-88
2024/02/15 00:50:10;;;;;;;1.25;1.23;;;;;;;;;;5100296;28;20754;-87
2024/02/15 00:52:38;;;;;;;1.35;1.25;;;;;;;;;;5100990;28;20212;-88
2024/02/15 00:55:06;;;;;;;1.48;1.38;;;;;;;;;;5100693;28;20635;-87
2024/02/15 00:57:34;;;;;;;1.00;1.00;;;;;;;;;;5100060;28;20581;-87
2024/02/15 01:00:03;;;;;;;1.30;1.20;;;;;;;;;;5099978;28;20319;-87
2024/02/15 01:02:31;;;;;;;0.90;0.90;;;;;;;;;;5100626;28;20212;-85
2024/02/15 01:04:58;;;;;;;1.00;1.00;;;;;;;;;;5083655;28;20209;-88
2024/02/15 01:07:27;;;;;;;0.77;0.77;;;;;;;;;;5094720;28;20228;-87
2024/02/15 01:09:55;;;;;;;1.15;1.15;;;;;;;;;;5088919;28;20232;-86
2024/02/15 01:12:22;;;;;;;1.05;1.05;;;;;;;;;;5093196;28;20294;-86
2024/02/15 01:14:50;;;;;;;1.00;1.00;;;;;;;;;;5100843;28;20243;-87
2024/02/15 01:17:19;;;;;;;1.00;1.00;;;;;;;;;;5100744;28;20200;-87
2024/02/15 01:19:46;;;;;;;1.00;1.00;;;;;;;;;;5101075;28;20317;-86
2024/02/15 01:22:14;;;;;;;1.45;1.40;;;;;;;;;;5100477;28;20693;-87
2024/02/15 01:24:41;;;;;;;1.30;1.20;;;;;;;;;;5100393;28;20232;-87
2024/02/15 01:27:09;;;;;;;1.30;1.20;;;;;;;;;;5101303;28;20235;-87
2024/02/15 01:29:37;;;;;;;1.00;1.00;;;;;;;;;;5101803;28;20260;-88
2024/02/15 01:32:05;;;;;;;0.90;0.90;;;;;;;;;;5100258;28;20272;-87
2024/02/15 01:34:34;;;;;;;1.00;1.00;;;;;;;;;;5100217;28;20655;-87
2024/02/15 01:37:02;;;;;;;1.00;1.00;;;;;;;;;;5099927;28;20571;-88
2024/02/15 01:39:29;;;;;;;1.23;1.10;;;;;;;;;;5099950;28;20638;-87
2024/02/15 01:41:57;;;;;;;0.80;0.80;;;;;;;;;;5100450;28;20290;-87
2024/02/15 01:44:24;;;;;;;1.17;1.17;;;;;;;;;;5100393;28;20217;-87
2024/02/15 01:46:53;;;;;;;1.20;1.20;;;;;;;;;;5100275;28;20556;-86
2024/02/15 01:49:22;;;;;;;0.90;0.90;;;;;;;;;;5101026;28;20232;-86
2024/02/15 01:51:52;;;;;;;1.10;1.10;;;;;;;;;;5099774;28;20605;-86
2024/02/15 01:54:20;;;;;;;0.80;0.80;;;;;;;;;;5101776;28;20201;-87
2024/02/15 01:56:47;;;;;;;0.70;0.70;;;;;;;;;;5100940;28;20811;-88
2024/02/15 01:59:17;;;;;;;0.90;0.90;;;;;;;;;;5093067;28;20232;-87
2024/02/15 02:01:44;;;;;;;0.93;0.93;;;;;;;;;;5100234;28;20283;-87
2024/02/15 02:04:12;;;;;;;1.00;1.00;;;;;;;;;;5100974;28;20299;-86
2024/02/15 02:06:40;;;;;;;0.82;0.82;;;;;;;;;;5093848;28;20680;-87
2024/02/15 02:09:14;;;;;;;0.80;0.80;;;;;;;;;;5083739;28;20694;-87
2024/02/15 02:11:41;;;;;;;1.00;1.00;;;;;;;;;;5101289;28;20196;-87
2024/02/15 02:14:11;;;;;;;0.80;0.80;;;;;;;;;;5100733;28;20300;-87
2024/02/15 02:16:39;;;;;;;1.00;1.00;;;;;;;;;;5100873;28;20295;-87
2024/02/15 02:19:08;;;;;;;1.58;1.40;;;;;;;;;;5101197;28;20264;-87
2024/02/15 02:21:39;;;;;;;1.65;1.55;;;;;;;;;;5100250;28;20228;-86
2024/02/15 02:24:14;;;;;;;1.05;1.05;;;;;;;;;;5100672;28;20200;-85
2024/02/15 02:26:43;;;;;;;1.70;1.60;;;;;;;;;;5100995;28;20207;-87
2024/02/15 02:29:10;;;;;;;1.10;1.10;;;;;;;;;;5101748;22;20221;-86
2024/02/15 02:31:38;;;;;;;1.38;1.27;;;;;;;;;;5078920;28;20239;-87
2024/02/15 02:34:06;;;;;;;1.20;1.20;;;;;;;;;;5080194;28;20292;-87
2024/02/15 02:36:34;;;;;;;0.90;0.90;;;;;;;;;;5080285;28;20228;-87
2024/02/15 02:39:01;;;;;;;0.73;0.73;;;;;;;;;;5078535;28;20303;-86
2024/02/15 02:41:29;;;;;;;0.90;0.90;;;;;;;;;;5079039;28;20205;-87
2024/02/15 02:43:58;;;;;;;0.73;0.73;;;;;;;;;;5078787;28;20718;-87
2024/02/15 02:46:26;;;;;;;0.60;0.60;;;;;;;;;;5079027;28;20209;-86
2024/02/15 02:48:53;;;;;;;0.93;0.93;;;;;;;;;;5077754;28;20237;-87
2024/02/15 02:51:21;;;;;;;0.90;0.70;;;;;;;;;;5077808;28;20291;-87
2024/02/15 02:53:48;;;;;;;0.70;0.70;;;;;;;;;;5077966;28;20200;-87
2024/02/15 02:56:16;;;;;;;0.70;0.70;;;;;;;;;;5078057;28;20268;-87
2024/02/15 02:58:43;;;;;;;0.82;0.77;;;;;;;;;;5077491;28;20312;-86
2024/02/15 03:01:13;;;;;;;0.77;0.77;;;;;;;;;;5076495;28;20224;-86
2024/02/15 03:03:40;;;;;;;0.90;0.90;;;;;;;;;;5070198;28;20201;-87
2024/02/15 03:06:08;;;;;;;0.75;0.75;;;;;;;;;;5060959;28;20205;-86
2024/02/15 03:08:35;;;;;;;0.73;0.73;;;;;;;;;;5070071;28;20321;-87
2024/02/15 03:11:03;;;;;;;0.75;0.73;;;;;;;;;;5076073;28;20643;-86
2024/02/15 03:13:31;;;;;;;0.90;0.90;;;;;;;;;;5076344;28;20282;-87
2024/02/15 03:15:58;;;;;;;0.77;0.77;;;;;;;;;;5077292;28;20309;-87
2024/02/15 03:18:27;;;;;;;0.80;0.77;;;;;;;;;;5075957;28;20236;-87
2024/02/15 03:20:55;;;;;;;1.17;1.17;;;;;;;;;;5074921;28;20571;-87
2024/02/15 03:23:22;;;;;;;0.90;0.90;;;;;;;;;;5075904;28;20205;-87
2024/02/15 03:25:50;;;;;;;0.80;0.75;;;;;;;;;;5075534;28;20212;-87
2024/02/15 03:28:17;;;;;;;0.80;0.80;;;;;;;;;;5075682;28;20269;-87
2024/02/15 03:30:45;;;;;;;1.20;1.10;;;;;;;;;;5077872;28;20240;-87
2024/02/15 03:33:13;;;;;;;1.05;1.05;;;;;;;;;;5078773;28;20239;-87
2024/02/15 03:35:42;;;;;;;1.00;1.00;;;;;;;;;;5079068;28;20231;-86
2024/02/15 03:38:09;;;;;;;1.50;1.40;;;;;;;;;;5078544;28;20207;-86
2024/02/15 03:40:40;;;;;;;1.17;1.13;;;;;;;;;;5078605;28;20260;-87
2024/02/15 03:43:09;;;;;;;0.90;0.90;;;;;;;;;;5078816;28;20548;-85
2024/02/15 03:45:37;;;;;;;1.00;1.00;;;;;;;;;;5078623;28;20312;-85
2024/02/15 03:48:07;;;;;;;0.98;0.98;;;;;;;;;;5078782;28;20637;-87
2024/02/15 03:50:34;;;;;;;1.08;1.08;;;;;;;;;;5079307;28;20233;-87
2024/02/15 03:53:04;;;;;;;0.90;0.90;;;;;;;;;;5078365;28;20292;-86
2024/02/15 03:55:33;;;;;;;0.80;0.80;;;;;;;;;;5079148;28;20307;-86
2024/02/15 03:58:00;;;;;;;1.80;0.77;;;;;;;;;;5079256;28;20251;-87
2024/02/15 04:00:28;;;;;;;0.85;0.85;;;;;;;;;;5078956;28;20221;-86
2024/02/15 04:02:56;;;;;;;1.95;1.85;;;;;;;;;;5078648;28;20292;-86
2024/02/15 04:05:24;;;;;;;1.27;1.27;;;;;;;;;;5073796;28;20567;-88
2024/02/15 04:07:52;;;;;;;0.70;0.70;;;;;;;;;;5075505;28;20297;-87
2024/02/15 04:10:21;;;;;;;0.90;0.90;;;;;;;;;;5078612;28;20260;-87
2024/02/15 04:12:49;;;;;;;0.80;0.80;;;;;;;;;;5078655;28;20236;-87
2024/02/15 04:15:17;;;;;;;0.80;0.80;;;;;;;;;;5078870;28;20750;-86
2024/02/15 04:17:44;;;;;;;1.10;1.10;;;;;;;;;;5079397;28;20683;-87
2024/02/15 04:20:14;;;;;;;1.17;1.13;;;;;;;;;;5078666;28;20225;-86
2024/02/15 04:22:43;;;;;;;0.90;0.90;;;;;;;;;;5078506;28;20205;-86
2024/02/15 04:25:16;;;;;;;1.50;1.40;;;;;;;;;;5078644;28;20232;-86
2024/02/15 04:27:46;;;;;;;0.95;0.95;;;;;;;;;;5078821;28;20299;-87
2024/02/15 04:30:15;;;;;;;1.23;1.13;;;;;;;;;;5070262;28;20227;-86
2024/02/15 04:32:42;;;;;;;1.95;1.65;;;;;;;;;;5078071;28;20250;-87
2024/02/15 04:35:10;;;;;;;1.10;1.00;;;;;;;;;;5078291;28;20296;-86
2024/02/15 04:37:38;;;;;;;1.30;1.10;;;;;;;;;;5077896;28;20543;-86
2024/02/15 04:40:09;;;;;;;2.03;1.73;;;;;;;;;;5078136;28;20228;-86
2024/02/15 04:42:39;;;;;;;1.85;1.75;;;;;;;;;;5078390;28;20200;-87
2024/02/15 04:45:12;;;;;;;1.70;1.60;;;;;;;;;;5078669;28;20205;-87
2024/02/15 04:47:41;;;;;;;1.85;1.75;;;;;;;;;;5078063;28;20781;-87
2024/02/15 04:50:10;;;;;;;2.20;2.10;;;;;;;;;;5076956;28;20657;-87
2024/02/15 04:52:37;;;;;;;2.70;2.10;;;;;;;;;;5069808;28;20302;-87
2024/02/15 04:55:05;;;;;;;1.73;1.63;;;;;;;;;;5060514;28;20300;-86
2024/02/15 04:57:36;;;;;;;1.63;1.52;;;;;;;;;;5062333;28;20247;-87
2024/02/15 05:00:09;;;;;;;1.80;1.70;;;;;;;;;;5057030;28;20217;-87
2024/02/15 05:02:40;;;;;;;1.42;1.33;;;;;;;;;;5071958;28;20204;-86
2024/02/15 05:05:08;;;;;;;1.80;1.70;;;;;;;;;;5077720;28;20659;-87
2024/02/15 05:07:37;;;;;;;2.28;2.08;;;;;;;;;;5076538;28;20205;-87
2024/02/15 05:10:06;;;;;;;1.73;1.63;;;;;;;;;;5077191;28;20232;-86
2024/02/15 05:12:34;;;;;;;1.58;1.48;;;;;;;;;;5077507;28;20237;-87
2024/02/15 05:15:02;;;;;;;1.63;1.52;;;;;;;;;;5076447;28;20208;-87
2024/02/15 05:17:29;;;;;;;1.50;1.40;;;;;;;;;;5076617;28;20706;-87
2024/02/15 05:19:58;;;;;;;1.55;1.45;;;;;;;;;;5076222;28;20217;-86
2024/02/15 05:22:28;;;;;;;1.83;1.73;;;;;;;;;;5076654;28;20747;-87
2024/02/15 05:24:56;;;;;;;1.60;1.50;;;;;;;;;;5077020;28;20205;-87
2024/02/15 05:27:24;;;;;;;1.90;1.80;;;;;;;;;;5076527;28;20707;-87
2024/02/15 05:29:53;;;;;;;1.73;1.63;;;;;;;;;;5076011;28;20225;-86
2024/02/15 05:32:21;;;;;;;2.05;1.95;;;;;;;;;;5078240;28;20679;-88
2024/02/15 05:34:49;;;;;;;2.10;1.70;;;;;;;;;;5077803;28;20248;-86
2024/02/15 05:37:18;;;;;;;1.90;1.80;;;;;;;;;;5078969;28;20900;-87
2024/02/15 05:39:45;;;;;;;1.48;1.38;;;;;;;;;;5079614;28;20878;-85
2024/02/15 05:42:12;;;;;;;1.63;1.52;;;;;;;;;;5079510;28;20223;-87
2024/02/15 05:44:42;;;;;;;1.50;1.40;;;;;;;;;;5077396;28;20317;-86
2024/02/15 05:47:11;;;;;;;1.50;1.40;;;;;;;;;;5079307;28;20231;-86
2024/02/15 05:49:38;;;;;;;1.75;1.65;;;;;;;;;;5079447;28;20323;-87
2024/02/15 05:52:06;;;;;;;1.83;1.73;;;;;;;;;;5077870;28;20215;-87
2024/02/15 05:54:35;;;;;;;2.00;1.83;;;;;;;;;;5079596;28;20632;-87
2024/02/15 05:57:03;;;;;;;2.45;2.15;;;;;;;;;;5078820;28;20273;-87
2024/02/15 05:59:30;;;;;;;1.60;1.50;;;;;;;;;;5078939;28;20315;-86
2024/02/15 06:01:58;;;;;;;2.25;2.05;;;;;;;;;;5076923;28;20276;-87
2024/02/15 06:04:26;;;;;;;2.28;2.17;;;;;;;;;;5076361;28;20200;-86
2024/02/15 06:06:58;;;;;;;2.28;2.08;;;;;;;;;;5068459;28;20235;-87
2024/02/15 06:09:27;;;;;;;1.80;1.70;;;;;;;;;;5062826;28;20632;-87
2024/02/15 06:11:57;;;;;;;2.25;1.85;;;;;;;;;;5077105;28;20883;-87
2024/02/15 06:14:25;;;;;;;1.80;1.70;;;;;;;;;;5076683;28;20241;-87
2024/02/15 06:16:55;;;;;;;1.98;1.88;;;;;;;;;;5077788;28;20205;-88
2024/02/15 06:19:22;;;;;;;1.30;1.20;;;;;;;;;;5077651;28;20232;-85
2024/02/15 06:21:50;;;;;;;2.05;1.95;;;;;;;;;;5076944;28;20208;-87
2024/02/15 06:24:17;;;;;;;1.73;1.63;;;;;;;;;;5077307;28;20300;-87
2024/02/15 06:26:46;;;;;;;1.70;1.60;;;;;;;;;;5076714;28;20205;-87
2024/02/15 06:40:23;;;;;;;1.50;1.40;;;;;;;;;;5062109;28;20856;-87
2024/02/15 06:42:51;;;;;;;2.17;1.70;;;;;;;;;;5077172;28;20211;-87
2024/02/15 06:45:20;;;;;;;1.23;1.23;;;;;;;;;;5077569;28;20211;-87
2024/02/15 06:47:47;;;;;;;1.42;1.33;;;;;;;;;;5078782;28;20228;-87
2024/02/15 06:50:16;;;;;;;1.42;1.33;;;;;;;;;;5079974;28;20217;-87
2024/02/15 06:52:44;;;;;;;3.55;1.30;;;;;;;;;;5080129;28;20208;-87
2024/02/15 06:55:14;;;;;;;1.42;1.30;;;;;;;;;;5080150;28;20685;-87
2024/02/15 06:57:42;;;;;;;1.95;1.85;;;;;;;;;;5079631;28;20220;-87
2024/02/15 07:00:15;;;;;;;1.30;1.27;;;;;;;;;;5079653;28;20225;-87
2024/02/15 07:02:44;;;;;;;1.60;1.50;;;;;;;;;;5080152;28;20239;-86
2024/02/15 07:05:11;;;;;;;2.60;1.80;;;;;;;;;;5082090;28;20213;-87
2024/02/15 07:07:42;;;;;;;2.17;1.50;;;;;;;;;;5083267;28;20211;-87
2024/02/15 07:10:11;;;;;;;2.47;1.60;;;;;;;;;;5083303;28;20247;-87
2024/02/15 07:12:38;;;;;;;1.65;1.55;;;;;;;;;;5083198;28;20225;-86
2024/02/15 07:15:08;;;;;;;2.03;1.90;;;;;;;;;;5082334;28;20289;-86
2024/02/15 07:17:36;;;;;;;2.40;1.60;;;;;;;;;;5083188;28;20200;-86
2024/02/15 07:20:07;;;;;;;1.58;1.35;;;;;;;;;;5082387;28;20225;-86
2024/02/15 07:22:35;;;;;;;1.40;1.30;;;;;;;;;;5081741;28;20204;-86
2024/02/15 07:25:03;;;;;;;1.45;1.35;;;;;;;;;;5081683;28;20197;-85
2024/02/15 07:27:34;;;;;;;1.50;1.40;;;;;;;;;;5082243;28;20208;-85
2024/02/15 07:30:03;;;;;;;1.50;1.40;;;;;;;;;;5082365;28;20834;-86
2024/02/15 07:32:35;;;;;;;2.30;2.10;;;;;;;;;;5081967;28;20227;-84
2024/02/15 07:35:02;;;;;;;1.98;1.70;;;;;;;;;;5082342;28;20280;-86
2024/02/15 07:37:32;;;;;;;1.83;1.55;;;;;;;;;;5082372;28;20205;-86
2024/02/15 07:40:00;;;;;;;2.15;1.95;;;;;;;;;;5082618;28;20594;-86
2024/02/15 07:42:27;;;;;;;2.78;2.58;;;;;;;;;;5082130;28;20208;-86
2024/02/15 07:44:55;;;;;;;2.55;2.35;;;;;;;;;;5082113;28;20232;-86
2024/02/15 07:47:24;;;;;;;2.38;2.15;;;;;;;;;;5082094;28;20300;-86
2024/02/15 07:49:51;;;;;;;2.80;2.60;;;;;;;;;;5082298;28;20228;-86
2024/02/15 07:52:19;;;;;;;2.22;2.13;;;;;;;;;;5081647;28;20655;-86
2024/02/15 07:54:48;;;;;;;2.50;2.30;;;;;;;;;;5081669;28;20212;-85
2024/02/15 07:57:16;;;;;;;3.70;2.83;;;;;;;;;;5082042;28;20205;-86
2024/02/15 07:59:44;;;;;;;3.17;2.22;;;;;;;;;;5082084;28;20221;-85
2024/02/15 08:02:12;;;;;;;2.03;1.90;;;;;;;;;;5081994;28;20198;-84
2024/02/15 08:04:41;;;;;;;2.03;1.92;;;;;;;;;;5081971;28;20634;-86
2024/02/15 08:07:10;;;;;;;3.03;2.75;;;;;;;;;;5080729;28;20295;-85
2024/02/15 08:09:38;;;;;;;2.28;2.15;;;;;;;;;;5072841;28;20221;-86
2024/02/15 08:12:08;;;;;;;3.70;2.40;;;;;;;;;;5080856;28;20245;-86
2024/02/15 08:14:35;;;;;;;2.00;1.83;;;;;;;;;;5080428;28;20735;-86
2024/02/15 08:17:03;;;;;;;2.97;2.38;;;;;;;;;;5080659;28;20641;-87
2024/02/15 08:19:31;;;;;;;2.13;2.03;;;;;;;;;;5080283;28;20220;-86
2024/02/15 08:21:58;;;;;;;2.45;2.25;;;;;;;;;;5080721;28;20232;-87
2024/02/15 08:24:25;;;;;;;3.50;3.20;;;;;;;;;;5080889;28;20288;-86
2024/02/15 08:26:54;;;;;;;4.03;2.80;;;;;;;;;;5077809;28;20303;-87
2024/02/15 08:29:23;;;;;;;3.60;2.58;;;;;;;;;;5095367;22;20241;-85
2024/02/15 08:31:50;;;;;;;3.85;3.47;;;;;;;;;;5023040;28;20250;-85
2024/02/15 08:34:19;;;;;;;2.75;2.55;;;;;;;;;;5006575;28;20268;-87
2024/02/15 08:36:48;;;;;;;2.90;2.50;;;;;;;;;;5005263;28;20858;-87
2024/02/15 08:39:16;;;;;;;2.17;1.90;;;;;;;;;;4997056;28;20232;-88
2024/02/15 08:41:44;;;;;;;2.83;2.00;;;;;;;;;;5005128;28;20200;-87
2024/02/15 08:44:15;;;;;;;3.47;2.20;;;;;;;;;;5003449;28;20275;-88
2024/02/15 08:46:44;;;;;;;2.30;2.10;;;;;;;;;;5085549;28;20216;-87
2024/02/15 08:49:13;;;;;;;1.80;1.70;;;;;;;;;;5005978;28;20266;-86
2024/02/15 08:51:40;;;;;;;2.38;2.00;;;;;;;;;;5004516;28;20203;-87
2024/02/15 08:54:08;;;;;;;2.35;2.25;;;;;;;;;;5004557;28;20234;-86
2024/02/15 08:56:37;;;;;;;2.25;2.00;;;;;;;;;;5004348;28;20207;-87
2024/02/15 08:59:04;;;;;;;2.00;1.90;;;;;;;;;;5099379;28;20240;-86
2024/02/15 09:01:33;;;;;;;2.50;2.20;;;;;;;;;;5104931;28;20245;-87
2024/02/15 09:04:02;;;;;;;4.72;2.30;;;;;;;;;;5105839;28;20681;-84
2024/02/15 09:06:30;;;;;;;2.50;2.30;;;;;;;;;;5071903;28;20204;-84
2024/02/15 09:08:58;;;;;;;2.03;1.85;;;;;;;;;;4981583;28;20215;-82
2024/02/15 09:11:30;;;;;;;1.83;1.73;;;;;;;;;;4978715;28;20234;-85
2024/02/15 09:13:58;;;;;;;2.97;2.00;;;;;;;;;;4996388;28;20219;-84
2024/02/15 09:16:25;;;;;;;2.03;1.92;;;;;;;;;;4998426;28;20227;-83
2024/02/15 09:18:53;;;;;;;2.25;2.08;;;;;;;;;;4998478;28;20287;-83
2024/02/15 09:21:24;;;;;;;2.00;1.75;;;;;;;;;;4998983;28;20215;-82
2024/02/15 09:23:51;;;;;;;2.08;1.88;;;;;;;;;;5042044;28;20199;-83
2024/02/15 09:26:19;;;;;;;2.00;1.90;;;;;;;;;;5064284;28;20287;-81
2024/02/15 09:28:46;;;;;;;2.38;2.17;;;;;;;;;;5020041;28;20304;-83
2024/02/15 09:31:14;;;;;;;2.30;2.10;;;;;;;;;;4998737;28;20235;-84
2024/02/15 09:33:42;;;;;;;3.70;2.00;;;;;;;;;;4997683;28;20227;-83
2024/02/15 09:36:10;;;;;;;3.65;2.65;;;;;;;;;;4998276;28;20246;-82
2024/02/15 09:38:38;;;;;;;5.18;3.05;;;;;;;;;;4998129;28;20290;-81
2024/02/15 09:41:07;;;;;;;1.83;1.73;;;;;;;;;;4999835;28;20275;-82
2024/02/15 09:43:35;;;;;;;2.13;2.03;;;;;;;;;;5034655;28;20236;-82
2024/02/15 09:46:04;;;;;;;2.15;2.05;;;;;;;;;;5050693;28;20663;-81
2024/02/15 09:48:31;;;;;;;2.00;1.88;;;;;;;;;;5001718;28;20237;-81
2024/02/15 09:50:59;;;;;;;1.70;1.60;;;;;;;;;;5041372;28;20314;-82
2024/02/15 09:53:28;;;;;;;1.88;1.77;;;;;;;;;;5026034;28;20708;-82
2024/02/15 09:56:04;;;;;;;2.58;2.03;;;;;;;;;;5103698;28;20207;-82
2024/02/15 09:58:33;;;;;;;1.70;1.60;;;;;;;;;;5060466;28;20214;-83
2024/02/15 10:01:03;;;;;;;1.98;1.58;;;;;;;;;;5016378;28;20227;-82
2024/02/15 10:03:31;;;;;;;1.67;1.58;;;;;;;;;;5026657;28;20207;-82
2024/02/15 10:05:58;;;;;;;2.35;2.15;;;;;;;;;;5003240;28;20261;-84
2024/02/15 10:08:26;;;;;;;3.28;1.88;;;;;;;;;;5029131;28;20230;-83
2024/02/15 10:11:09;;;;;;;2.15;2.05;;;;;;;;;;4996824;28;20757;-83
2024/02/15 10:13:36;;;;;;;2.20;2.00;;;;;;;;;;4997291;28;20204;-83
2024/02/15 10:16:16;;;;;;;2.13;2.00;;;;;;;;;;4998137;28;20208;-80
2024/02/15 10:18:44;;;;;;;1.48;1.38;;;;;;;;;;4998806;28;20549;-82
2024/02/15 10:21:12;;;;;;;1.83;1.73;;;;;;;;;;5038587;28;20589;-83
2024/02/15 10:23:39;;;;;;;1.98;1.88;;;;;;;;;;5076549;28;20618;-82
2024/02/15 10:26:23;;;;;;;2.10;1.85;;;;;;;;;;5045299;28;20731;-84
2024/02/15 10:29:08;;;;;;;2.10;2.00;;;;;;;;;;5039453;28;20575;-83
2024/02/15 10:31:36;;;;;;;1.85;1.70;;;;;;;;;;5021280;28;20294;-82
2024/02/15 10:34:06;;;;;;;1.63;1.52;;;;;;;;;;4996264;28;20224;-83
2024/02/15 10:36:33;;;;;;;2.80;2.30;;;;;;;;;;5070512;28;20641;-82
2024/02/15 10:39:16;;;;;;;3.17;1.73;;;;;;;;;;5102028;28;20311;-83
2024/02/15 10:41:46;;;;;;;2.30;2.20;;;;;;;;;;5020738;28;20226;-84
2024/02/15 10:44:18;;;;;;;2.70;2.50;;;;;;;;;;4989371;28;20206;-85
2024/02/15 10:46:51;;;;;;;3.58;3.15;;;;;;;;;;4997380;28;20234;-85
2024/02/15 10:49:20;;;;;;;2.78;2.58;;;;;;;;;;4990080;28;20238;-85
2024/02/15 10:51:54;;;;;;;2.55;2.33;;;;;;;;;;4997469;28;20207;-85
2024/02/15 10:54:41;;;;;;;2.45;2.25;;;;;;;;;;4997090;28;20261;-86
2024/02/15 10:57:12;;;;;;;2.38;2.28;;;;;;;;;;4996683;28;20192;-85
2024/02/15 10:59:42;;;;;;;3.10;2.20;;;;;;;;;;4997051;28;20318;-85
2024/02/15 11:02:30;;;;;;;2.53;2.33;;;;;;;;;;4996096;28;20195;-82
2024/02/15 11:05:04;;;;;;;2.60;2.25;;;;;;;;;;4996293;28;20191;-85
2024/02/15 11:07:33;;;;;;;2.63;2.33;;;;;;;;;;4996405;28;20192;-84
2024/02/15 11:10:01;;;;;;;2.90;2.60;;;;;;;;;;5038175;28;20330;-84
2024/02/15 11:12:30;;;;;;;2.70;2.50;;;;;;;;;;4995315;28;20207;-86
2024/02/15 11:14:58;;;;;;;2.60;2.40;;;;;;;;;;4996582;28;20257;-86
2024/02/15 11:17:54;;;;;;;2.70;2.50;;;;;;;;;;4995895;28;20455;-85
2024/02/15 11:20:51;;;;;;;3.50;2.80;;;;;;;;;;4995762;28;20234;-86
2024/02/15 11:23:30;;;;;;;3.35;2.58;;;;;;;;;;4995298;28;20192;-84
2024/02/15 11:25:59;;;;;;;2.88;2.67;;;;;;;;;;4996464;28;20322;-85
2024/02/15 11:28:41;;;;;;;4.30;2.85;;;;;;;;;;4996162;28;20257;-84
2024/02/15 11:31:13;;;;;;;4.00;3.22;;;;;;;;;;4996143;28;20253;-86
2024/02/15 11:33:44;;;;;;;4.45;3.72;;;;;;;;;;4996139;28;20597;-85
2024/02/15 11:36:13;;;;;;;3.72;3.40;;;;;;;;;;4996586;28;20622;-86
2024/02/15 11:38:43;;;;;;;3.53;3.25;;;;;;;;;;4996879;28;20659;-85
2024/02/15 11:41:11;;;;;;;2.92;2.70;;;;;;;;;;4996842;28;20204;-83
2024/02/15 11:43:56;;;;;;;2.95;2.70;;;;;;;;;;4995643;28;20199;-84
2024/02/15 11:46:32;;;;;;;5.15;3.95;;;;;;;;;;4996889;28;20242;-84
2024/02/15 11:49:00;;;;;;;3.95;3.13;;;;;;;;;;5047342;28;20274;-84
2024/02/15 11:51:30;;;;;;;4.43;3.58;;;;;;;;;;5029612;28;20837;-83
2024/02/15 11:54:11;;;;;;;3.20;2.90;;;;;;;;;;5044092;28;20312;-84
2024/02/15 11:57:09;;;;;;;3.60;2.80;;;;;;;;;;5002752;28;20212;-82
2024/02/15 12:00:12;;;;;;;4.50;3.30;;;;;;;;;;4998439;28;20277;-82
2024/02/15 12:19:23;;;;;;;4.55;3.90;;;;;;;;;;5103467;28;20227;-83
2024/02/15 12:21:52;;;;;;;3.67;3.38;;;;;;;;;;5102315;28;20204;-83
2024/02/15 12:24:21;;;;;;;4.28;3.97;;;;;;;;;;5002588;28;20307;-83
2024/02/15 12:26:49;;;;;;;4.60;4.20;;;;;;;;;;5004056;28;20670;-82
2024/02/15 12:29:19;;;;;;;3.40;3.10;;;;;;;;;;5002260;28;20307;-81
2024/02/15 12:31:49;;;;;;;5.18;4.05;;;;;;;;;;5002545;28;20214;-83
2024/02/15 12:34:17;;;;;;;5.93;4.57;;;;;;;;;;5001721;28;20223;-84
2024/02/15 12:36:45;;;;;;;5.82;5.30;;;;;;;;;;5042495;28;20196;-81
2024/02/15 12:39:16;;;;;;;5.32;3.78;;;;;;;;;;5103833;28;20221;-81
2024/02/15 12:41:51;;;;;;;3.78;3.47;;;;;;;;;;5103927;28;20543;-82
2024/02/15 12:44:20;;;;;;;4.70;4.22;;;;;;;;;;5041508;28;20191;-83
2024/02/15 12:46:55;;;;;;;5.45;3.70;;;;;;;;;;5085687;28;20738;-82
2024/02/15 12:49:32;;;;;;;4.05;3.65;;;;;;;;;;5104601;28;20690;-82
2024/02/15 13:24:20;;;;;;;4.32;3.05;;;;;;;;;;5906593;22;20228;-91
2024/02/15 13:26:48;;;;;;;5.65;4.10;;;;;;;;;;5051578;28;20206;-92
2024/02/15 13:29:16;;;;;;;3.33;3.10;;;;;;;;;;5060410;28;20205;-91
2024/02/15 13:31:44;;;;;;;4.78;3.85;;;;;;;;;;5053104;28;20253;-92
2024/02/15 13:34:11;;;;;;;4.90;4.00;;;;;;;;;;5053121;28;20296;-91
2024/02/15 13:36:39;;;;;;;3.47;3.17;;;;;;;;;;5053702;28;20204;-91
2024/02/15 13:39:09;;;;;;;2.72;2.50;;;;;;;;;;5141660;22;20255;-92
2024/02/15 13:41:38;;;;;;;2.85;2.63;;;;;;;;;;5054243;28;20201;-92
2024/02/15 13:44:06;;;;;;;2.50;2.30;;;;;;;;;;5060662;28;20240;-92
2024/02/15 13:46:34;;;;;;;3.38;3.08;;;;;;;;;;5058310;28;20202;-94
2024/02/15 13:49:02;;;;;;;4.20;3.30;;;;;;;;;;5055983;28;20757;-92
2024/02/15 13:51:29;;;;;;;4.63;3.72;;;;;;;;;;5053500;28;20198;-94
2024/02/15 13:53:58;;;;;;;2.70;2.50;;;;;;;;;;5054476;28;20265;-91
2024/02/15 13:56:25;;;;;;;2.92;2.60;;;;;;;;;;5053603;28;20225;-92
2024/02/15 13:58:54;;;;;;;2.83;2.63;;;;;;;;;;5055640;28;20236;-92
2024/02/15 14:01:23;;;;;;;2.42;2.22;;;;;;;;;;5053318;28;20228;-95
2024/02/15 14:03:51;;;;;;;2.72;2.40;;;;;;;;;;5053227;28;20259;-93
2024/02/15 14:06:19;;;;;;;3.30;2.63;;;;;;;;;;5053886;28;20276;-93
2024/02/15 14:08:47;;;;;;;2.20;2.08;;;;;;;;;;5053744;28;20236;-93
2024/02/15 14:11:15;;;;;;;2.80;2.33;;;;;;;;;;5053312;28;20208;-92
2024/02/15 14:13:43;;;;;;;1.75;1.65;;;;;;;;;;5052934;28;20208;-93
2024/02/15 14:16:12;;;;;;;4.05;2.60;;;;;;;;;;5053120;28;20249;-92
2024/02/15 14:18:40;;;;;;;3.22;2.80;;;;;;;;;;5052692;28;20221;-92
2024/02/15 14:21:10;;;;;;;2.40;2.20;;;;;;;;;;5053441;28;20194;-92
2024/02/15 14:23:40;;;;;;;7.15;2.40;;;;;;;;;;5052402;28;20198;-92
2024/02/15 14:26:07;;;;;;;4.90;2.40;;;;;;;;;;5053628;28;20284;-92
2024/02/15 14:28:35;;;;;;;2.97;2.47;;;;;;;;;;5054416;28;20698;-92
2024/02/15 14:33:51;;;;;;;2.25;2.05;;;;;;;;;;5053148;28;20283;-94
2024/02/15 14:36:19;;;;;;;2.78;2.10;;;;;;;;;;5053134;28;20431;-92
2024/02/15 14:38:47;;;;;;;3.55;2.28;;;;;;;;;;5052847;28;20233;-92
2024/02/15 14:41:15;;;;;;;3.05;2.38;;;;;;;;;;5053042;28;20228;-91
2024/02/15 14:43:44;;;;;;;2.75;2.20;;;;;;;;;;5052478;28;20217;-92
2024/02/15 14:46:12;;;;;;;2.40;2.15;;;;;;;;;;5052767;28;20212;-92
2024/02/15 14:48:40;;;;;;;2.10;1.55;;;;;;;;;;5052828;28;20248;-92
2024/02/15 14:51:09;;;;;;;2.15;1.75;;;;;;;;;;5052898;28;20197;-92
2024/02/15 14:53:37;;;;;;;1.70;1.50;;;;;;;;;;5053070;28;20202;-92
2024/02/15 14:56:06;;;;;;;2.45;1.92;;;;;;;;;;5051999;28;20309;-92
2024/02/15 14:58:35;;;;;;;9.75;2.35;;;;;;;;;;5052982;28;20225;-92
2024/02/15 15:01:02;;;;;;;7.30;2.55;;;;;;;;;;5052134;28;20233;-92
2024/02/15 15:03:33;;;;;;;2.72;2.10;;;;;;;;;;5052499;28;20201;-92
2024/02/15 15:14:19;;;;;;;2.25;1.80;;;;;;;;;;5052706;28;20193;-92
2024/02/15 15:16:48;;;;;;;2.40;2.08;;;;;;;;;;5051798;28;20217;-92
2024/02/15 15:19:16;;;;;;;3.33;1.60;;;;;;;;;;5052758;28;20272;-92
2024/02/15 15:21:43;;;;;;;2.45;2.25;;;;;;;;;;5052563;28;20210;-92
2024/02/15 15:24:13;;;;;;;2.47;2.28;;;;;;;;;;5053226;28;20675;-92
2024/02/15 15:26:41;;;;;;;1.90;1.80;;;;;;;;;;5057989;28;20206;-93
2024/02/15 15:29:10;;;;;;;2.13;1.92;;;;;;;;;;5058349;28;20233;-93
2024/02/15 15:31:38;;;;;;;2.38;1.70;;;;;;;;;;5057767;28;20206;-92
2024/02/15 15:34:06;;;;;;;3.15;2.78;;;;;;;;;;5059076;28;20233;-92
2024/02/15 15:36:34;;;;;;;3.08;2.17;;;;;;;;;;5057985;28;20229;-92
2024/02/15 15:39:05;;;;;;;1.88;1.75;;;;;;;;;;5057519;28;20239;-92
2024/02/15 15:41:35;;;;;;;2.45;1.83;;;;;;;;;;5056400;28;20255;-92
2024/02/15 15:44:02;;;;;;;2.20;2.00;;;;;;;;;;5057518;28;20201;-93
2024/02/15 15:46:30;;;;;;;2.42;1.60;;;;;;;;;;5057404;28;20289;-93
2024/02/15 15:48:57;;;;;;;2.92;1.40;;;;;;;;;;5057974;28;20731;-92
2024/02/15 15:51:26;;;;;;;3.05;1.33;;;;;;;;;;5065667;28;20222;-93
2024/02/15 15:53:54;;;;;;;1.50;1.33;;;;;;;;;;5062114;28;20214;-92
2024/02/15 15:56:22;;;;;;;2.13;1.50;;;;;;;;;;5057423;28;20227;-93
2024/02/15 15:58:51;;;;;;;2.40;1.70;;;;;;;;;;5056228;28;20226;-92
2024/02/15 16:01:19;;;;;;;1.70;1.60;;;;;;;;;;5055968;28;20281;-92
2024/02/15 16:03:51;;;;;;;3.25;1.67;;;;;;;;;;5055759;28;20292;-91
2024/02/15 16:06:19;;;;;;;1.85;1.58;;;;;;;;;;5055646;28;20237;-92